Home > Products > Valid Products > TAF

000
FTUS46 KSGX 212300
TAFSNA
TAF
KSNA 212320Z 2200/2224 VRB04KT P6SM SKC
     FM221200 VRB04KT 4SM BR HZ SKC
     FM221700 21006KT P6SM SKC=



000
FTUS46 KSGX 212300
TAFTRM
TAF
KTRM 212320Z 2200/2224 VRB05KT P6SM SKC=



000
FTUS46 KSGX 212300
TAFSAN
TAF
KSAN 212320Z 2200/2306 30005KT P6SM SKC
     FM220800 VRB04KT P6SM BKN010
     FM221200 VRB04KT P6SM BKN008
     FM221400 VRB04KT P6SM FEW010
     FM222000 29008KT P6SM SKC
     FM230100 VRB04KT P6SM SKC=



000
FTUS46 KSGX 212300
TAFPSP
TAF
KPSP 212320Z 2200/2224 33008KT P6SM SKC
     FM220400 VRB05KT P6SM SKC=



000
FTUS46 KSGX 212300
TAFONT
TAF
KONT 212320Z 2200/2306 26008KT P6SM SKC
     FM220300 VRB04KT P6SM SKC
     FM221300 VRB04KT 3SM BR HZ SKC
     FM221600 VRB04KT P6SM SKC
     FM222100 27009KT P6SM SKC
     FM230300 VRB04KT P6SM SKC=



000
FTUS46 KSGX 212300
TAFSNA
TAF
KSNA 212320Z 2200/2224 VRB04KT P6SM SKC
     FM221200 VRB04KT 4SM BR HZ SKC
     FM221700 21006KT P6SM SKC=



000
FTUS46 KSGX 212300
TAFCRQ
TAF
KCRQ 212320Z 2200/2224 VRB04KT P6SM SKC
     FM220700 VRB04KT 6SM HZ BKN009
     FM221100 VRB04KT 3SM BR BKN005
     FM221400 VRB04KT P6SM SKC
     FM221900 27007KT P6SM SKC=



000
FTUS46 KSGX 212300
TAFSAN
TAF
KSAN 212320Z 2200/2306 30005KT P6SM SKC
     FM220800 VRB04KT P6SM BKN010
     FM221200 VRB04KT P6SM BKN008
     FM221400 VRB04KT P6SM FEW010
     FM222000 29008KT P6SM SKC
     FM230100 VRB04KT P6SM SKC=



000
FTUS46 KSGX 212300
TAFONT
TAF
KONT 212320Z 2200/2306 26008KT P6SM SKC
     FM220300 VRB04KT P6SM SKC
     FM221300 VRB04KT 3SM BR HZ SKC
     FM221600 VRB04KT P6SM SKC
     FM222100 27009KT P6SM SKC
     FM230300 VRB04KT P6SM SKC=



000
FTUS46 KSGX 212300
TAFCRQ
TAF
KCRQ 212320Z 2200/2224 VRB04KT P6SM SKC
     FM220700 VRB04KT 6SM HZ BKN009
     FM221100 VRB04KT 3SM BR BKN005
     FM221400 VRB04KT P6SM SKC
     FM221900 27007KT P6SM SKC=



000
FTUS46 KSGX 212300
TAFPSP
TAF
KPSP 212320Z 2200/2224 33008KT P6SM SKC
     FM220400 VRB05KT P6SM SKC=



000
FTUS46 KSGX 212300
TAFTRM
TAF
KTRM 212320Z 2200/2224 VRB05KT P6SM SKC=



000
FTUS46 KSGX 212000 AAA
TAFSAN
TAF AMD
KSAN 212032Z 2121/2224 29008KT P6SM SKC
     FM220200 VRB04KT P6SM SCT015
     FM220500 VRB03KT P6SM BKN012
     FM221500 VRB03KT P6SM FEW012
     FM222000 29008KT P6SM SKC=



000
FTUS46 KSGX 211700
TAFTRM
TAF
KTRM 211731Z 2118/2218 VRB06KT P6SM SKC=



000
FTUS46 KSGX 211700
TAFSNA
TAF
KSNA 211731Z 2118/2218 VRB03KT P6SM SCT018
     FM211900 23008KT P6SM SKC
     FM220300 VRB04KT P6SM FEW012
      TEMPO 2209/2212 6SM BR BKN012=



000
FTUS46 KSGX 211700
TAFSAN
TAF
KSAN 211731Z 2118/2224 VRB03KT P6SM FEW018
     FM212000 29009KT P6SM SKC
     FM220200 VRB04KT P6SM SCT015
     FM220500 VRB03KT P6SM BKN012
     FM221500 VRB03KT P6SM FEW012
     FM222000 29008KT P6SM SKC=



000
FTUS46 KSGX 211700
TAFONT
TAF
KONT 211731Z 2118/2224 VRB05KT 4SM HZ SKC
     FM212000 25008KT P6SM SKC
     FM220300 VRB04KT P6SM SKC
      TEMPO 2213/2216 3SM BR SKC
     FM222100 27009KT P6SM SKC=



000
FTUS46 KSGX 211700
TAFPSP
TAF
KPSP 211731Z 2118/2218 VRB04KT P6SM SKC
     FM212300 33008KT P6SM SKC
     FM220400 VRB04KT P6SM SKC=



000
FTUS46 KSGX 211700
TAFCRQ
TAF
KCRQ 211731Z 2118/2218 26008KT P6SM FEW015
     FM220200 VRB04KT P6SM SCT012
     FM220600 VRB03KT 6SM HZ BKN009
     FM221500 VRB03KT P6SM SCT010=



000
FTUS46 KSGX 211600 AAB
TAFSAN
TAF AMD
KSAN 211627Z 2116/2218 VRB03KT P6SM SCT020
     FM212000 29009KT P6SM FEW020
     FM220200 VRB04KT P6SM SCT015
     FM220500 VRB03KT P6SM BKN012
     FM221500 VRB03KT P6SM SCT012=



000
FTUS46 KSGX 211400 AAA
TAFONT
TAF AMD
KONT 211432Z 2115/2218 VRB03KT 4SM BR BKN007
     FM211700 VRB05KT 6SM HZ SKC
     FM212000 25008KT P6SM SKC
     FM220300 VRB04KT P6SM SKC=



000
FTUS46 KSGX 211400 AAA
TAFSAN
TAF AMD
KSAN 211427Z 2114/2218 VRB03KT P6SM OVC018
     FM211800 29010KT P6SM FEW020
     FM220200 VRB04KT P6SM SCT015
     FM220500 VRB03KT P6SM BKN012
      TEMPO 2211/2215 SCT012=



000
FTUS46 KSGX 211100
TAFPSP
TAF
KPSP 211120Z 2112/2212 VRB06KT P6SM SKC=



000
FTUS46 KSGX 211100
TAFCRQ
TAF
KCRQ 211120Z 2112/2212 VRB03KT P6SM OVC015
     FM211700 26008KT P6SM SKC
     FM220100 VRB04KT P6SM SCT012
     FM220600 VRB03KT P6SM BKN010=



000
FTUS46 KSGX 211100
TAFSAN
TAF
KSAN 211120Z 2112/2218 VRB03KT P6SM OVC020
     FM211800 29009KT P6SM SKC
     FM220200 VRB04KT P6SM SCT015
     FM220500 VRB03KT P6SM BKN012
      TEMPO 2211/2215 SCT012=



000
FTUS46 KSGX 211100
TAFONT
TAF
KONT 211120Z 2112/2218 VRB03KT 4SM BR SCT010
      TEMPO 2113/2115 1SM BR BKN009
     FM211700 VRB05KT 6SM HZ SKC
     FM212000 25008KT P6SM SKC
     FM220300 VRB04KT P6SM SKC=



000
FTUS46 KSGX 211100
TAFSAN
TAF
KSAN 211120Z 2112/2218 VRB03KT P6SM OVC020
     FM211800 29009KT P6SM SKC
     FM220200 VRB04KT P6SM SCT015
     FM220500 VRB03KT P6SM BKN012
      TEMPO 2211/2215 SCT012=



000
FTUS46 KSGX 211100
TAFCRQ
TAF
KCRQ 211120Z 2112/2212 VRB03KT P6SM OVC015
     FM211700 26008KT P6SM SKC
     FM220100 VRB04KT P6SM SCT012
     FM220600 VRB03KT P6SM BKN010=



000
FTUS46 KSGX 211100
TAFPSP
TAF
KPSP 211120Z 2112/2212 VRB06KT P6SM SKC=



000
FTUS46 KSGX 211100
TAFTRM
TAF
KTRM 211120Z 2112/2212 VRB06KT P6SM SKC=



000
FTUS46 KSGX 211100
TAFTRM
TAF
KTRM 211120Z 2112/2212 VRB06KT P6SM SKC=



000
FTUS46 KSGX 211100
TAFSNA
TAF
KSNA 211120Z 2112/2212 VRB03KT P6SM BKN015
     FM211700 23008KT P6SM SKC
     FM220200 VRB04KT P6SM SKC
      TEMPO 2209/2212 6SM BR BKN012=



000
FTUS46 KSGX 211100
TAFONT
TAF
KONT 211120Z 2112/2218 VRB03KT 4SM BR SCT010
      TEMPO 2113/2115 1SM BR BKN009
     FM211700 VRB05KT 6SM HZ SKC
     FM212000 25008KT P6SM SKC
     FM220300 VRB04KT P6SM SKC=



000
FTUS46 KSGX 211100
TAFSNA
TAF
KSNA 211120Z 2112/2212 VRB03KT P6SM BKN015
     FM211700 23008KT P6SM SKC
     FM220200 VRB04KT P6SM SKC
      TEMPO 2209/2212 6SM BR BKN012=



000
FTUS46 KSGX 211000 AAA
TAFONT
TAF AMD
KONT 211002Z 2110/2212 VRB03KT 5SM BR VCFG SCT005
      TEMPO 2112/2115 1SM BR VV002
     FM211600 VRB05KT 5SM HZ SCT010
     FM212100 25008KT P6SM SKC
     FM220300 VRB04KT P6SM SKC=



000
FTUS46 KSGX 211000 AAA
TAFONT
TAF AMD
KONT 211002Z 2110/2212 VRB03KT 5SM BR VCFG SCT005
      TEMPO 2112/2115 1SM BR VV002
     FM211600 VRB05KT 5SM HZ SCT010
     FM212100 25008KT P6SM SKC
     FM220300 VRB04KT P6SM SKC=



000
FTUS46 KSGX 211000 AAB
TAFSNA
TAF AMD
KSNA 211001Z 2110/2206 VRB03KT P6SM SCT015
     FM211130 VRB03KT P6SM OVC015
     FM211700 VRB05KT P6SM SCT018
     FM212200 24007KT P6SM SKC
     FM220100 VRB04KT P6SM FEW012=



000
FTUS46 KSGX 211000 AAB
TAFSNA
TAF AMD
KSNA 211001Z 2110/2206 VRB03KT P6SM SCT015
     FM211130 VRB03KT P6SM OVC015
     FM211700 VRB05KT P6SM SCT018
     FM212200 24007KT P6SM SKC
     FM220100 VRB04KT P6SM FEW012=



000
FTUS46 KSGX 210900 AAA
TAFSAN
TAF AMD
KSAN 210919Z 2109/2212 VRB03KT P6SM OVC016
     FM211730 VRB04KT P6SM SCT019
     FM212000 29008KT P6SM SKC
     FM220100 VRB04KT P6SM FEW014
     FM220500 VRB03KT P6SM BKN013=



000
FTUS46 KSGX 210800 AAA
TAFSNA
TAF AMD
KSNA 210803Z 2108/2206 VRB03KT P6SM SCT015
     FM210930 VRB03KT P6SM OVC015
     FM211700 VRB05KT P6SM SCT018
     FM212200 24007KT P6SM SKC
     FM220100 VRB04KT P6SM FEW012=



000
FTUS46 KSGX 210500
TAFSNA
TAF
KSNA 210520Z 2106/2206 VRB03KT P6SM OVC015
     FM211700 VRB05KT P6SM SCT018
     FM212200 24007KT P6SM SKC
     FM220100 VRB04KT P6SM FEW012=



000
FTUS46 KSGX 210500
TAFCRQ
TAF
KCRQ 210520Z 2106/2206 VRB03KT P6SM OVC014
     FM211730 VRB05KT P6SM SCT017
     FM212100 26007KT P6SM SKC
     FM220100 VRB04KT P6SM FEW010=



000
FTUS46 KSGX 210500
TAFSAN
TAF
KSAN 210520Z 2106/2212 VRB03KT P6SM OVC017
     FM211730 VRB04KT P6SM SCT019
     FM212000 29008KT P6SM SKC
     FM220100 VRB04KT P6SM FEW014
     FM220500 VRB03KT P6SM BKN013=



000
FTUS46 KSGX 210500
TAFTRM
TAF
KTRM 210520Z 2106/2206 VRB06KT P6SM FEW250=



000
FTUS46 KSGX 210500
TAFPSP
TAF
KPSP 210520Z 2106/2206 VRB06KT P6SM FEW250=



000
FTUS46 KSGX 210500
TAFONT
TAF
KONT 210520Z 2106/2212 VRB04KT P6SM FEW007
     FM211100 VRB02KT 3SM BR VCFG OVC005
      TEMPO 2113/2116 1/2SM FG VV001
     FM211700 VRB05KT 5SM HZ SCT010
     FM212100 25008KT P6SM SKC
     FM220300 VRB04KT P6SM SKC=



000
FTUS46 KSGX 210400 AAA
TAFSNA
TAF AMD
KSNA 210408Z 2104/2124 VRB03KT P6SM OVC015
      TEMPO 2104/2106 SCT015
     FM211700 VRB05KT P6SM SCT017
     FM212100 23008KT P6SM SKC=



000
FTUS46 KSGX 210400 AAA
TAFSNA
TAF AMD
KSNA 210408Z 2104/2124 VRB03KT P6SM OVC015
      TEMPO 2104/2106 SCT015
     FM211700 VRB05KT P6SM SCT017
     FM212100 23008KT P6SM SKC=



000
FTUS46 KSGX 210300 AAA
TAFSAN
TAF AMD
KSAN 210308Z 2103/2206 VRB03KT P6SM OVC018
     FM211700 VRB04KT P6SM SCT020
     FM212000 29009KT P6SM SKC
     FM220100 VRB04KT P6SM FEW014
     FM220500 VRB03KT P6SM BKN013=



000
FTUS46 KSGX 210300 AAA
TAFSAN
TAF AMD
KSAN 210308Z 2103/2206 VRB03KT P6SM OVC018
     FM211700 VRB04KT P6SM SCT020
     FM212000 29009KT P6SM SKC
     FM220100 VRB04KT P6SM FEW014
     FM220500 VRB03KT P6SM BKN013=



000
FTUS46 KSGX 210100 AAA
TAFCRQ
TAF AMD
KCRQ 210132Z 2102/2124 VRB04KT P6SM BKN015
     FM210300 VRB03KT P6SM OVC015
     FM211700 VRB05KT P6SM SCT018
     FM212100 26008KT P6SM SKC=



000
FTUS46 KSGX 202300
TAFTRM
TAF
KTRM 202325Z 2100/2124 VRB06KT P6SM FEW250=



000
FTUS46 KSGX 202300
TAFPSP
TAF
KPSP 202325Z 2100/2124 33008KT P6SM SKC
     FM210300 VRB06KT P6SM FEW250=



000
FTUS46 KSGX 202300
TAFONT
TAF
KONT 202325Z 2100/2206 25007KT P6SM FEW250
     FM210300 VRB04KT P6SM FEW007
     FM211100 VRB02KT 3SM BR VCFG OVC005
      TEMPO 2113/2116 1/2SM FG VV001
     FM211700 VRB05KT 5SM HZ SCT010
     FM212100 25009KT P6SM SKC
     FM220300 VRB04KT P6SM SKC=



000
FTUS46 KSGX 202300
TAFSAN
TAF
KSAN 202325Z 2100/2206 VRB05KT P6SM FEW020
     FM210300 VRB03KT P6SM OVC018
     FM211700 VRB04KT P6SM SCT020
     FM212000 29009KT P6SM SKC
     FM220100 VRB04KT P6SM FEW014
     FM220500 VRB03KT P6SM BKN013=



000
FTUS46 KSGX 202300
TAFCRQ
TAF
KCRQ 202325Z 2100/2124 VRB05KT P6SM FEW018
     FM210300 VRB03KT P6SM OVC015
     FM211700 VRB05KT P6SM SCT018
     FM212100 26008KT P6SM SKC=



000
FTUS46 KSGX 202300
TAFSNA
TAF
KSNA 202325Z 2100/2124 VRB05KT P6SM FEW019 FEW250
     FM210400 VRB03KT P6SM OVC017
     FM211700 VRB05KT P6SM SCT019
     FM212100 23008KT P6SM SKC=



000
FTUS46 KSGX 202200 AAB
TAFSAN
TAF AMD
KSAN 202249Z 2023/2124 29008KT P6SM FEW020
     FM210300 VRB03KT P6SM OVC018
     FM211700 VRB04KT P6SM SCT020
     FM212000 29009KT P6SM SKC=



000
FTUS46 KSGX 202000 AAA
TAFSAN
TAF AMD
KSAN 202033Z 2021/2124 29009KT P6SM FEW018 BKN025
      TEMPO 2021/2024 FEW018 SCT025
     FM210000 29009KT P6SM BKN020
     FM210200 VRB04KT P6SM OVC020
     FM211700 VRB04KT P6SM SCT025
     FM211900 29009KT P6SM FEW025=



000
FTUS46 KSGX 201700
TAFSNA
TAF
KSNA 201737Z 2018/2118 VRB05KT P6SM OVC019
     FM201900 23007KT P6SM BKN021
     FM202000 23007KT P6SM SCT024
     FM210300 VRB04KT P6SM OVC020=



000
FTUS46 KSGX 201700
TAFCRQ
TAF
KCRQ 201737Z 2018/2118 VRB05KT P6SM OVC015
     FM201900 26008KT P6SM SCT018
      TEMPO 2019/2020 BKN018
     FM202200 VRB06KT P6SM SCT020
     FM210000 VRB04KT P6SM OVC018
     FM211700 VRB04KT P6SM SCT020=



000
FTUS46 KSGX 201700
TAFPSP
TAF
KPSP 201737Z 2018/2118 VRB06KT P6SM SKC
     FM210000 33009KT P6SM FEW200
     FM210300 VRB06KT P6SM SCT200=



000
FTUS46 KSGX 201700
TAFSAN
TAF
KSAN 201737Z 2018/2124 VRB04KT P6SM SCT016 OVC026
     FM201900 29009KT P6SM FEW015 SCT028
      TEMPO 2019/2020 BKN028
     FM210000 29009KT P6SM BKN020
     FM210200 VRB04KT P6SM OVC020
     FM211700 VRB04KT P6SM SCT025
     FM211900 29009KT P6SM FEW025=



000
FTUS46 KSGX 201700
TAFONT
TAF
KONT 201737Z 2018/2124 VRB04KT 4SM HZ BKN010
     FM201900 25006KT P6SM FEW010
     FM202100 25009KT P6SM SKC
     FM210400 VRB04KT P6SM FEW008
     FM210900 VRB04KT 3SM BR VCFG OVC006
      TEMPO 2113/2116 1/2SM FG VV002
     FM211700 VRB05KT 5SM HZ SCT010
     FM212100 25009KT P6SM SKC=



000
FTUS46 KSGX 201700
TAFTRM
TAF
KTRM 201737Z 2018/2118 14007KT P6SM SKC
     FM210100 33006KT P6SM SCT200=



000
FTUS46 KSGX 201600 AAC
TAFSAN
TAF AMD
KSAN 201606Z 2016/2118 VRB04KT P6SM SCT015 OVC026
     FM201830 29009KT P6SM SCT025
     FM210100 VRB04KT P6SM OVC020
     FM211700 VRB04KT P6SM SCT025=



000
FTUS46 KSGX 201500 AAD
TAFONT
TAF AMD
KONT 201543Z 2016/2118 VRB04KT 2SM BR VCFG BKN004
      TEMPO 2016/2017 1SM BR BKN002
     FM201700 23005KT 5SM HZ SCT005
     FM202100 26010KT P6SM SKC
     FM210400 VRB04KT P6SM SCT018
     FM210700 VRB04KT P6SM BKN018
     FM211700 VRB05KT P6SM SCT025=



000
FTUS46 KSGX 201500 AAA
TAFSNA
TAF AMD
KSNA 201511Z 2015/2112 VRB03KT P6SM OVC021
     FM201800 23008KT P6SM SCT025
     FM210300 VRB04KT P6SM OVC020=



000
FTUS46 KSGX 201400 AAB
TAFSAN
TAF AMD
KSAN 201445Z 2015/2118 VRB04KT P6SM BKN017 OVC021
     FM201800 29009KT P6SM SCT025
     FM210100 VRB04KT P6SM OVC020
     FM211700 VRB04KT P6SM SCT025=



000
FTUS46 KSGX 201400 AAC
TAFONT
TAF AMD
KONT 201418Z 2014/2118 VRB03KT 3SM BR SCT008
      TEMPO 2014/2016 1/4SM FG VV000
     FM201600 23005KT P6SM FEW008
     FM202100 26010KT P6SM SKC
     FM210400 VRB04KT P6SM SCT018
     FM210700 VRB04KT P6SM BKN018
     FM211700 VRB05KT P6SM SCT025=



000
FTUS46 KSGX 201400 AAB
TAFONT
TAF AMD
KONT 201409Z 2014/2118 VRB03KT 6SM HZ SCT010
      TEMPO 2014/2016 3SM BR SCT008
     FM201600 23005KT P6SM SKC
     FM202100 26010KT P6SM SKC
     FM210400 VRB04KT P6SM SCT018
     FM210700 VRB04KT P6SM BKN018
     FM211700 VRB05KT P6SM SCT025=



000
FTUS46 KSGX 201300 AAA
TAFSAN
TAF AMD
KSAN 201351Z 2014/2118 VRB04KT P6SM BKN015 OVC021
     FM201800 29009KT P6SM SCT025
     FM210100 VRB04KT P6SM OVC020
     FM211700 VRB04KT P6SM SCT025=



000
FTUS46 KSGX 201200 AAA
TAFONT
TAF AMD
KONT 201233Z 2013/2118 VRB03KT 6SM HZ SCT010
     FM201600 23005KT P6SM SKC
     FM202100 26010KT P6SM SKC
     FM210400 VRB04KT P6SM SCT018
     FM210700 VRB04KT P6SM BKN018
     FM211700 VRB05KT P6SM SCT025=



000
FTUS46 KSGX 201100
TAFTRM
TAF
KTRM 201121Z 2012/2112 VRB05KT P6SM SKC
     FM201800 14008KT P6SM SKC
     FM210300 33008KT P6SM SKC=



000
FTUS46 KSGX 201100
TAFPSP
TAF
KPSP 201121Z 2012/2112 VRB06KT P6SM SKC
     FM210100 33007KT P6SM SKC=



000
FTUS46 KSGX 201100
TAFONT
TAF
KONT 201121Z 2012/2118 VRB03KT 6SM HZ SCT010
      TEMPO 2012/2015 4SM BR BKN009
     FM201600 23005KT P6SM SKC
     FM202100 26010KT P6SM SKC
     FM210400 VRB04KT P6SM SCT018
     FM210700 VRB04KT P6SM BKN018
     FM211700 VRB05KT P6SM SCT025=



000
FTUS46 KSGX 201100
TAFCRQ
TAF
KCRQ 201121Z 2012/2112 VRB04KT P6SM OVC018
     FM201800 26008KT P6SM SCT020
     FM210000 VRB04KT P6SM OVC018=



000
FTUS46 KSGX 201100
TAFSAN
TAF
KSAN 201121Z 2012/2118 VRB04KT P6SM BKN020
     FM201800 29009KT P6SM SCT025
     FM210100 VRB04KT P6SM OVC020
     FM211700 VRB04KT P6SM SCT025=



000
FTUS46 KSGX 201100
TAFSNA
TAF
KSNA 201121Z 2012/2112 VRB03KT P6SM OVC018
     FM201800 23008KT P6SM SCT025
     FM210300 VRB04KT P6SM OVC020=



000
FTUS46 KSGX 201000 AAB
TAFSAN
TAF AMD
KSAN 201005Z 2010/2112 VRB04KT P6SM BKN015
     FM201800 29009KT P6SM SCT020
     FM210100 VRB05KT P6SM BKN018=



000
FTUS46 KSGX 201000 AAB
TAFSAN
TAF AMD
KSAN 201005Z 2010/2112 VRB04KT P6SM BKN015
     FM201800 29009KT P6SM SCT020
     FM210100 VRB05KT P6SM BKN018=



000
FTUS46 KSGX 200900 AAA
TAFONT
TAF AMD
KONT 200934Z 2010/2112 VRB04KT P6SM SKC
     FM201200 VRB04KT 6SM BR SCT010
      TEMPO 2012/2015 4SM BR BKN009
     FM201700 23005KT P6SM SKC
     FM202100 26010KT P6SM SKC
     FM210400 VRB04KT P6SM SCT020
     FM210700 VRB04KT P6SM BKN020=



000
FTUS46 KSGX 200700 AAA
TAFSAN
TAF AMD
KSAN 200708Z 2007/2112 VRB03KT P6SM SCT020
     FM200900 VRB04KT P6SM BKN017
     FM201900 29010KT P6SM SCT020
     FM210200 VRB04KT P6SM BKN020=



000
FTUS46 KSGX 200600 RRA
TAFTRM
TAF
KTRM 200605Z 2006/2106 33008KT P6SM SKC
     FM200900 VRB05KT P6SM SKC=



000
FTUS46 KSGX 200600 RRA
TAFPSP
TAF
KPSP 200605Z 2006/2106 VRB05KT P6SM SKC
     FM210100 33008KT P6SM SKC=



000
FTUS46 KSGX 200600 RRA
TAFSAN
TAF
KSAN 200605Z 2006/2112 VRB04KT P6SM BKN017
     FM201900 29010KT P6SM SCT020
     FM210200 VRB04KT P6SM BKN020=



000
FTUS46 KSGX 200600 RRA
TAFSNA
TAF
KSNA 200605Z 2006/2106 VRB04KT P6SM SCT015
     FM200800 VRB04KT P6SM BKN015
     FM201700 23006KT P6SM SCT020
     FM210500 VRB04KT P6SM BKN020=



000
FTUS46 KSGX 200600 RRA
TAFONT
TAF
KONT 200605Z 2006/2112 VRB04KT P6SM SKC
     FM201000 VRB04KT 4SM BR BKN015
     FM201700 VRB04KT 6SM BR FEW015
     FM202100 26010KT P6SM SKC
     FM210400 VRB04KT P6SM SCT020
     FM210700 VRB04KT P6SM BKN020=



000
FTUS46 KSGX 200600 RRA
TAFCRQ
TAF
KCRQ 200605Z 2006/2106 VRB04KT P6SM BKN013
     FM201800 27007KT P6SM SCT015
     FM210100 VRB04KT P6SM BKN015=



000
FTUS46 KSGX 200500
TAFPSP
TAF
KPSP 200520Z 2006/2106 VRB05KT P6SM SKC
     FM210100 33008KT P6SM SKC=



000
FTUS46 KSGX 200500
TAFSNA
TAF
KSNA 200520Z 2006/2106 VRB04KT P6SM SCT015
     FM200800 VRB04KT P6SM BKN015
     FM201700 23006KT P6SM SCT020
     FM210500 VRB04KT P6SM BKN020=



000
FTUS46 KSGX 200500
TAFONT
TAF
KONT 200520Z 2006/2112 VRB04KT P6SM SKC
     FM201000 VRB04KT 4SM BR BKN015
     FM201700 VRB04KT 6SM BR FEW015
     FM202100 26010KT P6SM SKC
     FM210400 VRB04KT P6SM SCT020
     FM210700 VRB04KT P6SM BKN020=



000
FTUS46 KSGX 200500
TAFCRQ
TAF
KCRQ 200520Z 2006/2106 VRB04KT P6SM BKN013
     FM201800 27007KT P6SM SCT015
     FM210100 VRB04KT P6SM BKN015=



000
FTUS46 KSGX 200500
TAFSAN
TAF
KSAN 200520Z 2006/2112 VRB04KT P6SM BKN017
     FM201900 29010KT P6SM SCT020
     FM210200 VRB04KT P6SM BKN020=



000
FTUS46 KSGX 200500
TAFTRM
TAF
KTRM 200520Z 2006/2106 33008KT P6SM SKC
     FM200900 VRB05KT P6SM SKC=



000
FTUS46 KSGX 200400 AAB
TAFSAN
TAF AMD
KSAN 200443Z 2005/2106 VRB04KT P6SM SCT020
     FM200600 VRB04KT P6SM BKN017
     FM201900 29010KT P6SM SCT020
     FM210200 VRB04KT P6SM BKN020=



000
FTUS46 KSGX 200300 AAA
TAFSAN
TAF AMD
KSAN 200304Z 2003/2106 VRB04KT P6SM SCT020
     FM200500 VRB04KT P6SM BKN020
     FM201900 29010KT P6SM SCT025
     FM210200 VRB04KT P6SM BKN025=



000
FTUS46 KSGX 192300
TAFONT
TAF
KONT 192323Z 2000/2106 26010KT P6SM SKC
     FM200400 VRB04KT P6SM SKC
     FM201200 VRB04KT 4SM BR BKN015
     FM201700 VRB04KT 6SM BR FEW015
     FM202100 26010KT P6SM SKC
     FM210400 VRB04KT P6SM SCT020=



000
FTUS46 KSGX 192300
TAFSNA
TAF
KSNA 192323Z 2000/2024 VRB04KT P6SM SCT020
     FM200900 VRB04KT P6SM BKN018
     FM201700 23006KT P6SM SCT020=



000
FTUS46 KSGX 192300
TAFCRQ
TAF
KCRQ 192323Z 2000/2024 VRB04KT P6SM SCT018
     FM200400 VRB04KT P6SM BKN015
     FM201800 27007KT P6SM SCT020=



000
FTUS46 KSGX 192300
TAFTRM
TAF
KTRM 192323Z 2000/2024 VRB05KT P6SM SKC
     FM200500 33010KT P6SM SKC
     FM200900 VRB05KT P6SM SKC=



000
FTUS46 KSGX 192300
TAFONT
TAF
KONT 192323Z 2000/2106 26010KT P6SM SKC
     FM200400 VRB04KT P6SM SKC
     FM201200 VRB04KT 4SM BR BKN015
     FM201700 VRB04KT 6SM BR FEW015
     FM202100 26010KT P6SM SKC
     FM210400 VRB04KT P6SM SCT020=



000
FTUS46 KSGX 192300
TAFSNA
TAF
KSNA 192323Z 2000/2024 VRB04KT P6SM SCT020
     FM200900 VRB04KT P6SM BKN018
     FM201700 23006KT P6SM SCT020=



000
FTUS46 KSGX 192300
TAFCRQ
TAF
KCRQ 192323Z 2000/2024 VRB04KT P6SM SCT018
     FM200400 VRB04KT P6SM BKN015
     FM201800 27007KT P6SM SCT020=



000
FTUS46 KSGX 192300
TAFSAN
TAF
KSAN 192323Z 2000/2106 29009KT P6SM SCT025
     FM200200 VRB04KT P6SM SCT020
     FM200500 VRB04KT P6SM BKN020
     FM201900 29010KT P6SM SCT025
     FM210200 VRB04KT P6SM BKN025=



000
FTUS46 KSGX 192300
TAFPSP
TAF
KPSP 192323Z 2000/2024 32010KT P6SM SKC
     FM200700 VRB05KT P6SM SKC=



000
FTUS46 KSGX 192300
TAFSAN
TAF
KSAN 192323Z 2000/2106 29009KT P6SM SCT025
     FM200200 VRB04KT P6SM SCT020
     FM200500 VRB04KT P6SM BKN020
     FM201900 29010KT P6SM SCT025
     FM210200 VRB04KT P6SM BKN025=



000
FTUS46 KSGX 192300
TAFTRM
TAF
KTRM 192323Z 2000/2024 VRB05KT P6SM SKC
     FM200500 33010KT P6SM SKC
     FM200900 VRB05KT P6SM SKC=



000
FTUS46 KSGX 192300
TAFPSP
TAF
KPSP 192323Z 2000/2024 32010KT P6SM SKC
     FM200700 VRB05KT P6SM SKC=



000
FTUS46 KSGX 192100 AAA
TAFSAN
TAF AMD
KSAN 192106Z 1921/2024 29010KT P6SM SCT025
      TEMPO 1921/1923 BKN029
     FM200230 VRB04KT P6SM SCT020
     FM200430 VRB04KT P6SM BKN018
     FM201930 29010KT P6SM SCT020=



000
FTUS46 KSGX 191700
TAFSAN
TAF
KSAN 191720Z 1918/2024 VRB03KT P6SM SCT025
     FM191900 28010KT P6SM SCT025
     FM200230 VRB03KT P6SM SCT020
     FM200430 VRB03KT P6SM BKN018
     FM201930 29010KT P6SM SCT020=



000
FTUS46 KSGX 191700
TAFCRQ
TAF
KCRQ 191720Z 1918/2018 VRB03KT P6SM SCT020
     FM191930 26010KT P6SM SCT020
     FM200200 VRB03KT P6SM SCT018
     FM200400 VRB03KT P6SM BKN015=



000
FTUS46 KSGX 191700
TAFSNA
TAF
KSNA 191720Z 1918/2018 23009KT P6SM SKC
     FM200200 VRB03KT P6SM SCT020
     FM200800 VRB03KT P6SM BKN018
     FM201700 VRB03KT P6SM SCT020=



000
FTUS46 KSGX 191700
TAFONT
TAF
KONT 191720Z 1918/2024 VRB03KT P6SM SKC
     FM192230 26010KT P6SM SKC
     FM200400 VRB03KT P6SM SCT025
     FM201100 VRB04KT 4SM BR BKN015
     FM201630 VRB04KT 6SM BR SCT015
     FM202200 26010KT P6SM SKC=



000
FTUS46 KSGX 191700
TAFPSP
TAF
KPSP 191720Z 1918/2018 VRB05KT P6SM SKC
     FM200000 32010KT P6SM SKC
     FM200700 VRB05KT P6SM SKC=



000
FTUS46 KSGX 191700
TAFTRM
TAF
KTRM 191720Z 1918/2018 VRB05KT P6SM SKC
     FM200500 33010KT P6SM SKC
     FM200900 VRB05KT P6SM SKC=



000
FTUS46 KSGX 191400 AAA
TAFSAN
TAF AMD
KSAN 191444Z 1915/2018 VRB03KT P6SM SCT020
      TEMPO 1915/1916 BKN020
     FM191900 28010KT P6SM SCT025
     FM200200 VRB03KT P6SM OVC020
     FM200800 VRB03KT 6SM BR BKN015=



000
FTUS46 KSGX 191100
TAFSNA
TAF
KSNA 191120Z 1912/2012 VRB03KT P6SM SCT025
     FM192000 22008KT P6SM SCT025
     FM200200 VRB03KT P6SM SCT020
     FM200700 VRB03KT 6SM BR BKN020=



000
FTUS46 KSGX 191100
TAFTRM
TAF
KTRM 191120Z 1912/2012 33009KT P6SM SKC
     FM191800 32005KT P6SM SKC=



000
FTUS46 KSGX 191100
TAFSAN
TAF
KSAN 191120Z 1912/2018 VRB03KT P6SM BKN022
     FM191900 28010KT P6SM SCT025
     FM200200 VRB03KT P6SM OVC020
     FM200800 VRB03KT 6SM BR BKN015=



000
FTUS46 KSGX 191100
TAFCRQ
TAF
KCRQ 191120Z 1912/2012 VRB03KT P6SM BKN020
     FM191900 28008KT P6SM SCT020
     FM200300 VRB03KT 6SM BR BKN018=



000
FTUS46 KSGX 191100
TAFONT
TAF
KONT 191120Z 1912/2018 VRB03KT P6SM FEW025
     FM192200 25010KT P6SM SKC
     FM200400 25003KT P6SM SCT025
     FM201000 VRB04KT P6SM BKN020=



000
FTUS46 KSGX 191100
TAFPSP
TAF
KPSP 191120Z 1912/2012 VRB05KT P6SM SKC
     FM200000 32008KT P6SM SKC=



000
FTUS46 KSGX 190900 AAB
TAFSAN
TAF AMD
KSAN 190910Z 1909/2012 VRB03KT P6SM BKN022
     FM191900 28010KT P6SM SCT025
     FM200100 VRB04KT P6SM OVC020=



000
FTUS46 KSGX 190700 AAA
TAFSAN
TAF AMD
KSAN 190728Z 1908/2012 VRB03KT P6SM BKN020
     FM191900 29010KT P6SM SCT025
     FM200100 VRB04KT P6SM OVC020=



000
FTUS46 KSGX 190500
TAFTRM
TAF
KTRM 190520Z 1906/2006 33009KT P6SM SKC
     FM191000 VRB05KT P6SM SKC=



000
FTUS46 KSGX 190500
TAFSNA
TAF
KSNA 190520Z 1906/2006 VRB04KT P6SM SCT035
     FM191200 VRB04KT P6SM BKN020
     FM191700 VRB04KT P6SM SCT025
     FM192000 22008KT P6SM SCT025
     FM200200 VRB04KT P6SM SCT020=



000
FTUS46 KSGX 190500
TAFPSP
TAF
KPSP 190520Z 1906/2006 32009KT P6SM SKC
     FM190700 VRB05KT P6SM SKC
     FM200300 32008KT P6SM SKC=



000
FTUS46 KSGX 190500
TAFCRQ
TAF
KCRQ 190520Z 1906/2006 VRB04KT P6SM FEW022
     FM190900 VRB04KT P6SM BKN018
     FM191900 28008KT P6SM SCT020
     FM200000 28006KT P6SM BKN018=



000
FTUS46 KSGX 190500
TAFONT
TAF
KONT 190520Z 1906/2012 VRB04KT P6SM FEW025
     FM191300 VRB04KT P6SM BKN020
     FM191600 VRB04KT P6SM SCT025
     FM192100 25010KT P6SM SKC
     FM200400 VRB04KT P6SM SCT025
     FM200800 VRB04KT P6SM BKN020=



000
FTUS46 KSGX 190500
TAFSAN
TAF
KSAN 190520Z 1906/2012 VRB04KT P6SM FEW025
     FM190900 VRB04KT P6SM BKN022
     FM191900 29010KT P6SM SCT025
     FM200100 VRB04KT P6SM OVC020=



000
FTUS46 KSGX 190400 AAB
TAFSAN
TAF AMD
KSAN 190419Z 1904/2006 VRB04KT P6SM FEW025
     FM190800 VRB04KT P6SM BKN022
     FM191900 29010KT P6SM BKN025
     FM192100 29010KT P6SM SCT025
     FM200000 29006KT P6SM OVC020=



000
FTUS46 KSGX 190400 AAB
TAFSAN
TAF AMD
KSAN 190419Z 1904/2006 VRB04KT P6SM FEW025
     FM190800 VRB04KT P6SM BKN022
     FM191900 29010KT P6SM BKN025
     FM192100 29010KT P6SM SCT025
     FM200000 29006KT P6SM OVC020=



000
FTUS46 KSGX 190400 AAA
TAFCRQ
TAF AMD
KCRQ 190404Z 1904/1924 VRB04KT P6SM FEW022
     FM190700 VRB04KT P6SM BKN018
     FM191900 28008KT P6SM SCT020
     FM192300 28006KT P6SM BKN018=



000
FTUS46 KSGX 190400 AAA
TAFCRQ
TAF AMD
KCRQ 190404Z 1904/1924 VRB04KT P6SM FEW022
     FM190700 VRB04KT P6SM BKN018
     FM191900 28008KT P6SM SCT020
     FM192300 28006KT P6SM BKN018=



000
FTUS46 KSGX 190300 AAA
TAFSAN
TAF AMD
KSAN 190310Z 1903/2006 VRB04KT P6SM SCT025
     FM190600 VRB04KT P6SM BKN022
     FM191900 29010KT P6SM BKN025
     FM192100 29010KT P6SM SCT025
     FM200000 29006KT P6SM OVC020=



    US Dept of Commerce
    National Oceanic and Atmospheric Administration
    National Weather Service
    1325 East West Highway
    Silver Spring, MD 20910
    Page Author: NWS Internet Services Team
Disclaimer
Information Quality
Credits
Glossary
Privacy Policy
Freedom of Information Act (FOIA)
About Us
Career Opportunities